Lincolns New Salem, Illinois
Current Conditions -  °F | °C
As of 1:52 PM on Thursday 29 Jan 2015 (Local Time) from KSPI Reporting Station
Overcast Overcast  
Wind Chill: 27°   Ceiling: 1900
Heat Index: 38°   Visibility: 10mi
Dew Point: 32°   Wind: 22mph
Humidity: 79%   Direction: 310°NW
Pressure: 30.13"   Gusts: 28mph
Location:  39.995°N, 89.8499°W
Report Text: KSPI 291952Z 31019G24KT 10SM OVC019 03/00 A3013 RMK AO2 PK WND 32029/1934 SLP204 T00330000
Loading
Personal Weather Stations






























Interactive Weather Map New forecast layout! Learn more

10-Day Weather Forecast

Advertisements
Track Severe Weather on mobile